Time;durP1;ratioP1;P1;durP2;ratioP2;P2;SDS_P1;SDS_P2;PMS_P1;PMS_P2;Temp;Humidity;BMP_temperature;BMP_pressure;BME280_temperature;BME280_humidity;BME280_pressure;Samples;Min_cycle;Max_cycle;Signal;HPM_P1;HPM_P2
2023/03/23 00:01:57;;;;;;;48.10;32.97;;;;;;;10.08;87.71;98937.16;5051786;28;20048;-78
2023/03/23 00:04:25;;;;;;;49.55;34.33;;;;;;;10.30;88.27;98973.25;5052464;28;20079;-78
2023/03/23 00:06:51;;;;;;;50.72;35.00;;;;;;;10.30;88.40;98970.66;5052244;28;20031;-78
2023/03/23 00:09:17;;;;;;;57.80;39.22;;;;;;;10.29;88.45;98966.38;5051761;28;20104;-78
2023/03/23 00:11:42;;;;;;;46.33;32.78;;;;;;;10.21;88.37;98961.56;5052352;28;20047;-78
2023/03/23 00:14:12;;;;;;;52.83;33.60;;;;;;;10.11;88.40;98944.78;5051593;28;20029;-78
2023/03/23 00:16:40;;;;;;;43.67;28.45;;;;;;;10.12;88.38;98957.72;5051771;28;20032;-78
2023/03/23 00:19:08;;;;;;;33.70;22.65;;;;;;;10.00;88.67;98943.63;5051889;28;20063;-78
2023/03/23 00:21:36;;;;;;;36.53;23.05;;;;;;;10.12;88.75;98954.28;5051774;28;20033;-78
2023/03/23 00:24:09;;;;;;;56.10;38.88;;;;;;;10.18;88.77;98964.34;5051572;28;20108;-78
2023/03/23 00:26:39;;;;;;;45.83;29.02;;;;;;;10.19;89.13;98955.59;5051694;28;20028;-78
2023/03/23 00:29:06;;;;;;;31.40;22.13;;;;;;;9.71;89.16;98877.63;5051416;28;20032;-78
2023/03/23 00:31:32;;;;;;;30.00;21.00;;;;;;;10.08;89.24;98938.00;5051567;28;20027;-78
2023/03/23 00:34:04;;;;;;;32.00;23.10;;;;;;;10.24;89.08;98961.41;5051866;28;20477;-78
2023/03/23 00:36:31;;;;;;;34.33;23.42;;;;;;;10.28;89.16;98962.09;5051738;28;20028;-78
2023/03/23 00:39:01;;;;;;;25.58;19.70;;;;;;;10.28;89.28;98962.09;5051705;28;20148;-78
2023/03/23 00:41:27;;;;;;;36.53;24.45;;;;;;;10.22;89.24;98951.06;5051545;28;20025;-78
2023/03/23 00:43:57;;;;;;;39.78;25.80;;;;;;;10.20;89.33;98952.09;5054362;28;20033;-78
2023/03/23 00:46:24;;;;;;;56.30;32.42;;;;;;;10.19;89.29;98942.59;5055589;28;20021;-78
2023/03/23 00:48:50;;;;;;;41.35;25.95;;;;;;;10.00;89.33;98908.97;5055853;28;20563;-78
2023/03/23 00:51:17;;;;;;;51.45;30.75;;;;;;;10.14;89.10;98940.25;5055471;28;20078;-78
2023/03/23 00:53:43;;;;;;;50.05;29.52;;;;;;;10.20;89.09;98945.13;5055604;28;20025;-78
2023/03/23 00:56:09;;;;;;;41.22;27.17;;;;;;;10.20;89.11;98946.91;5055206;28;20028;-78
2023/03/23 00:58:35;;;;;;;40.88;26.00;;;;;;;10.20;89.32;98945.13;5055893;28;20037;-78
2023/03/23 01:01:01;;;;;;;35.22;23.02;;;;;;;10.21;89.48;98946.78;5055333;28;20473;-78
2023/03/23 01:03:28;;;;;;;35.30;22.70;;;;;;;10.07;89.53;98915.53;5055667;28;20033;-78
2023/03/23 01:05:54;;;;;;;41.83;26.70;;;;;;;10.23;89.47;98949.31;5054092;28;20036;-78
2023/03/23 01:08:21;;;;;;;31.08;21.45;;;;;;;10.16;89.69;98922.81;5055045;28;20029;-78
2023/03/23 01:10:46;;;;;;;28.30;20.77;;;;;;;10.27;89.54;98930.00;5055257;28;20392;-78
2023/03/23 01:13:12;;;;;;;27.58;20.10;;;;;;;10.22;89.19;98925.03;5055149;28;20040;-78
2023/03/23 01:15:38;;;;;;;24.70;19.10;;;;;;;10.22;89.12;98916.41;5055118;28;20037;-78
2023/03/23 01:18:04;;;;;;;32.30;20.58;;;;;;;10.23;89.08;98912.88;5054893;28;20447;-78
2023/03/23 01:20:31;;;;;;;29.80;21.90;;;;;;;10.39;88.74;98936.28;5055156;28;20037;-78
2023/03/23 01:23:00;;;;;;;36.67;22.98;;;;;;;10.41;88.76;98937.06;5055293;28;20384;-78
2023/03/23 01:25:27;;;;;;;30.40;20.48;;;;;;;10.32;89.03;98920.19;5054650;28;20021;-78
2023/03/23 01:27:52;;;;;;;27.58;20.08;;;;;;;10.42;88.69;98933.53;5054840;28;20024;-78
2023/03/23 01:30:17;;;;;;;28.20;19.35;;;;;;;10.35;88.61;98920.00;5054898;28;20040;-78
2023/03/23 01:32:43;;;;;;;27.02;20.60;;;;;;;10.36;88.57;98934.69;5054970;28;20029;-78
2023/03/23 01:35:09;;;;;;;27.02;19.63;;;;;;;10.38;88.73;98932.84;5054995;28;20082;-78
2023/03/23 01:37:36;;;;;;;28.63;20.20;;;;;;;10.32;88.87;98922.78;5054885;28;20495;-78
2023/03/23 01:40:01;;;;;;;38.38;24.55;;;;;;;10.18;88.84;98914.91;5054690;28;20056;-78
2023/03/23 01:42:33;;;;;;;33.35;23.20;;;;;;;10.25;88.88;98926.69;5054442;28;20421;-78
2023/03/23 01:45:20;;;;;;;33.95;22.73;;;;;;;10.21;89.11;98922.53;5054721;28;20377;-78
2023/03/23 01:48:11;;;;;;;44.25;26.83;;;;;;;10.14;89.33;98929.84;5054524;28;20030;-78
2023/03/23 01:50:47;;;;;;;51.60;35.38;;;;;;;10.16;89.18;98927.16;5054452;28;20029;-78
2023/03/23 01:53:12;;;;;;;42.20;28.67;;;;;;;10.16;89.89;98919.38;5054382;28;20503;-78
2023/03/23 01:55:40;;;;;;;50.80;32.08;;;;;;;10.19;89.43;98919.16;5053461;28;20103;-78
2023/03/23 01:58:06;;;;;;;45.75;28.38;;;;;;;10.07;89.56;98897.31;5054196;28;20502;-78
2023/03/23 02:00:33;;;;;;;65.85;39.33;;;;;;;10.17;89.22;98916.66;5054298;28;20079;-78
2023/03/23 02:03:00;;;;;;;43.28;29.63;;;;;;;10.14;88.96;98902.97;5054290;28;20029;-78
2023/03/23 02:05:36;;;;;;;38.72;25.95;;;;;;;10.00;89.50;98894.19;5054470;28;20032;-78
2023/03/23 02:08:05;;;;;;;42.53;27.95;;;;;;;10.07;89.56;98888.63;5054189;28;20091;-78
2023/03/23 02:10:32;;;;;;;40.88;27.35;;;;;;;10.05;89.42;98883.53;5054059;28;20622;-78
2023/03/23 02:12:59;;;;;;;32.97;23.77;;;;;;;9.98;89.07;98862.22;5054100;28;20499;-78
2023/03/23 02:15:32;;;;;;;35.38;25.42;;;;;;;10.17;88.56;98884.59;5053889;28;20052;-78
2023/03/23 02:18:07;;;;;;;32.35;23.00;;;;;;;10.22;88.56;98887.78;5053945;28;20485;-78
2023/03/23 02:20:49;;;;;;;62.92;39.33;;;;;;;10.12;87.73;98871.03;5054157;28;20017;-78
2023/03/23 02:23:43;;;;;;;42.10;28.67;;;;;;;10.19;87.44;98872.31;5054090;28;20354;-78
2023/03/23 02:26:27;;;;;;;40.15;27.98;;;;;;;10.37;87.30;98892.13;5054040;28;20033;-78
2023/03/23 02:29:13;;;;;;;36.47;26.52;;;;;;;10.41;87.25;98888.44;5053811;28;20380;-78
2023/03/23 02:31:58;;;;;;;43.83;31.05;;;;;;;10.44;87.07;98882.19;5053887;28;20059;-78
2023/03/23 02:34:40;;;;;;;41.45;29.90;;;;;;;10.51;87.17;98882.69;5053630;28;20067;-78
2023/03/23 02:37:24;;;;;;;37.22;26.33;;;;;;;10.38;85.97;98856.53;5054017;28;20408;-78
2023/03/23 02:40:11;;;;;;;37.15;24.38;;;;;;;10.43;85.62;98857.09;5053627;28;20029;-78
2023/03/23 02:42:40;;;;;;;30.02;21.55;;;;;;;10.61;85.35;98881.22;5053462;28;20018;-78
2023/03/23 02:45:08;;;;;;;33.78;22.08;;;;;;;10.65;85.10;98878.31;5053493;28;20468;-78
2023/03/23 02:47:36;;;;;;;28.85;20.63;;;;;;;10.45;84.96;98852.66;5053602;28;20029;-78
2023/03/23 02:50:05;;;;;;;27.77;20.15;;;;;;;10.60;84.60;98872.56;5053578;28;20029;-78
2023/03/23 02:52:32;;;;;;;25.40;18.13;;;;;;;10.64;84.36;98874.06;5053214;28;20025;-78
2023/03/23 02:54:59;;;;;;;29.40;20.35;;;;;;;10.67;84.53;98878.25;5053316;28;20051;-78
2023/03/23 02:57:27;;;;;;;27.23;18.75;;;;;;;10.76;84.48;98882.91;5052962;28;20029;-78
2023/03/23 02:59:52;;;;;;;25.45;18.77;;;;;;;10.77;83.62;98881.13;5053455;28;20037;-78
2023/03/23 03:02:23;;;;;;;29.27;21.20;;;;;;;10.67;83.52;98868.66;5053061;28;20465;-78
2023/03/23 03:04:58;;;;;;;28.33;20.87;;;;;;;10.79;83.48;98867.13;5053568;28;20415;-78
2023/03/23 03:07:41;;;;;;;27.15;18.73;;;;;;;10.62;83.72;98847.28;5052516;28;20032;-78
2023/03/23 03:10:16;;;;;;;23.90;19.40;;;;;;;10.62;82.85;98849.88;5053518;28;20099;-78
2023/03/23 03:12:56;;;;;;;22.23;17.88;;;;;;;10.68;82.66;98839.09;5053132;28;20033;-78
2023/03/23 03:15:32;;;;;;;26.02;16.80;;;;;;;10.78;82.79;98861.97;5052806;28;20029;-78
2023/03/23 03:18:07;;;;;;;23.17;18.38;;;;;;;10.68;82.58;98839.09;5052987;28;20052;-78
2023/03/23 03:20:37;;;;;;;25.95;20.27;;;;;;;10.83;82.74;98858.19;5052585;28;20060;-78
2023/03/23 03:23:07;;;;;;;26.85;20.13;;;;;;;10.85;82.60;98856.31;5053124;28;20473;-78
2023/03/23 03:25:33;;;;;;;26.25;20.92;;;;;;;10.89;83.01;98851.75;5052588;28;20079;-78
2023/03/23 03:27:59;;;;;;;26.85;18.75;;;;;;;10.61;82.73;98814.34;5052692;28;20033;-78
2023/03/23 03:30:30;;;;;;;28.42;19.30;;;;;;;10.89;82.52;98859.56;5052942;28;20511;-78
2023/03/23 03:32:56;;;;;;;24.83;19.25;;;;;;;10.90;82.91;98856.03;5052550;28;20025;-78
2023/03/23 03:35:23;;;;;;;26.23;17.65;;;;;;;10.82;82.78;98840.03;5052474;28;20017;-78
2023/03/23 03:37:50;;;;;;;27.02;20.25;;;;;;;10.78;82.92;98839.38;5052374;28;20484;-78
2023/03/23 03:40:18;;;;;;;20.05;16.63;;;;;;;10.68;82.76;98831.28;5052609;28;20036;-78
2023/03/23 03:42:45;;;;;;;24.77;17.40;;;;;;;10.65;82.89;98815.00;5052909;28;20035;-78
2023/03/23 03:45:17;;;;;;;25.52;17.85;;;;;;;10.88;82.60;98847.47;5051126;28;20021;-78
2023/03/23 03:47:42;;;;;;;22.88;16.70;;;;;;;10.77;82.79;98824.69;5051267;28;20060;-78
2023/03/23 03:50:09;;;;;;;24.15;17.63;;;;;;;10.77;82.75;98827.28;5052509;28;20079;-78
2023/03/23 03:52:35;;;;;;;20.65;16.10;;;;;;;10.92;82.57;98847.19;5050783;28;20033;-78
2023/03/23 03:55:00;;;;;;;18.50;15.07;;;;;;;10.91;82.28;98836.84;5052279;28;20045;-78
2023/03/23 03:57:26;;;;;;;19.60;15.25;;;;;;;10.80;82.07;98819.28;5052005;28;20052;-78
2023/03/23 03:59:52;;;;;;;19.73;14.57;;;;;;;10.79;82.09;98822.81;5052127;28;20075;-78
2023/03/23 04:02:19;;;;;;;22.40;16.00;;;;;;;10.96;81.85;98842.66;5052006;28;20040;-78
2023/03/23 04:04:46;;;;;;;21.55;16.83;;;;;;;10.95;81.81;98844.38;5052188;28;20036;-78
2023/03/23 04:07:13;;;;;;;19.85;15.55;;;;;;;10.84;81.73;98820.78;5051999;28;20074;-78
2023/03/23 04:09:39;;;;;;;19.85;15.60;;;;;;;11.03;81.92;98845.69;5052097;28;20090;-78
2023/03/23 04:12:05;;;;;;;21.83;16.13;;;;;;;10.91;81.69;98829.03;5051998;28;20037;-78
2023/03/23 04:14:30;;;;;;;16.60;13.52;;;;;;;11.06;81.58;98855.94;5051617;28;20048;-78
2023/03/23 04:16:56;;;;;;;18.60;14.40;;;;;;;10.96;81.25;98829.63;5051566;28;20495;-79
2023/03/23 04:19:23;;;;;;;18.58;13.85;;;;;;;11.02;81.06;98834.44;5051521;28;20033;-78
2023/03/23 04:21:48;;;;;;;20.33;15.60;;;;;;;11.02;81.11;98837.03;5051889;28;20468;-78
2023/03/23 04:24:15;;;;;;;21.80;15.50;;;;;;;11.07;80.96;98848.03;5051472;28;20025;-78
2023/03/23 04:26:41;;;;;;;22.27;15.57;;;;;;;10.96;80.99;98832.22;5051715;28;20032;-78
2023/03/23 04:29:08;;;;;;;19.95;15.40;;;;;;;11.09;81.36;98840.13;5051649;28;20017;-78
2023/03/23 04:31:34;;;;;;;21.05;14.70;;;;;;;11.04;81.06;98837.81;5051622;28;20028;-78
2023/03/23 04:34:01;;;;;;;20.50;15.02;;;;;;;10.94;81.49;98831.47;5051804;28;20028;-78
2023/03/23 04:36:28;;;;;;;20.58;15.27;;;;;;;11.03;81.32;98843.91;5051431;28;20035;-78
2023/03/23 04:38:55;;;;;;;22.95;15.43;;;;;;;10.81;81.61;98801.88;5051703;28;20021;-78
2023/03/23 04:41:21;;;;;;;20.77;14.43;;;;;;;11.03;81.36;98843.91;5051373;28;20037;-78
2023/03/23 04:43:52;;;;;;;22.13;15.43;;;;;;;10.98;81.41;98827.75;5051530;28;20061;-78
2023/03/23 04:46:17;;;;;;;20.30;15.55;;;;;;;11.04;81.48;98837.81;5051449;28;20033;-78
2023/03/23 04:48:43;;;;;;;20.70;16.52;;;;;;;10.92;81.47;98810.72;5051716;28;20511;-78
2023/03/23 04:51:08;;;;;;;22.30;16.98;;;;;;;11.09;81.27;98832.31;5051632;28;20543;-78
2023/03/23 04:53:34;;;;;;;19.73;16.63;;;;;;;11.10;81.08;98827.00;5050025;28;20472;-78
2023/03/23 04:56:01;;;;;;;23.33;16.55;;;;;;;10.94;81.16;98814.06;5051530;28;20032;-78
2023/03/23 04:58:27;;;;;;;22.25;17.42;;;;;;;10.97;81.41;98803.47;5051458;28;20025;-78
2023/03/23 05:00:53;;;;;;;22.40;16.67;;;;;;;10.98;81.17;98810.34;5051726;28;20120;-78
2023/03/23 05:03:19;;;;;;;20.20;15.70;;;;;;;10.91;80.75;98797.78;5051208;28;20108;-78
2023/03/23 05:05:52;;;;;;;20.67;15.40;;;;;;;11.09;81.05;98825.31;5051531;28;20082;-78
2023/03/23 05:08:21;;;;;;;17.45;12.98;;;;;;;10.90;80.71;98777.88;5051142;28;20029;-78
2023/03/23 05:10:52;;;;;;;19.30;13.82;;;;;;;11.05;80.49;98802.16;5051367;28;20029;-78
2023/03/23 05:13:18;;;;;;;23.88;14.93;;;;;;;11.11;80.25;98807.81;5051267;28;20021;-78
2023/03/23 05:15:43;;;;;;;21.17;14.82;;;;;;;11.13;80.31;98813.78;5051435;28;20040;-78
2023/03/23 05:18:09;;;;;;;18.80;14.23;;;;;;;11.17;80.14;98822.25;5049900;28;20056;-78
2023/03/23 05:20:35;;;;;;;16.60;13.63;;;;;;;11.11;80.19;98806.97;5051051;28;20131;-78
2023/03/23 05:23:00;;;;;;;19.58;13.63;;;;;;;11.10;79.80;98807.91;5051588;28;20124;-78
2023/03/23 05:25:26;;;;;;;24.15;18.15;;;;;;;11.26;79.82;98834.69;5050858;28;20103;-78
2023/03/23 05:27:52;;;;;;;18.85;14.77;;;;;;;11.22;79.64;98815.81;5051438;28;20029;-78
2023/03/23 05:30:19;;;;;;;17.13;12.25;;;;;;;11.16;79.53;98802.31;5054415;28;20024;-78
2023/03/23 05:32:45;;;;;;;18.00;11.30;;;;;;;11.24;79.45;98810.47;5055154;28;20102;-78
2023/03/23 05:35:11;;;;;;;15.98;11.43;;;;;;;11.29;79.92;98818.00;5055013;28;20060;-78
2023/03/23 05:37:37;;;;;;;19.23;12.10;;;;;;;11.39;79.63;98826.94;5054552;28;20029;-78
2023/03/23 05:40:05;;;;;;;18.02;12.73;;;;;;;11.24;79.76;98800.06;5054869;28;20025;-78
2023/03/23 05:42:33;;;;;;;15.77;11.10;;;;;;;11.34;79.43;98802.94;5054596;28;20366;-78
2023/03/23 05:44:58;;;;;;;15.23;10.82;;;;;;;11.39;79.50;98806.09;5054923;28;20036;-78
2023/03/23 05:47:25;;;;;;;14.73;10.77;;;;;;;11.55;79.10;98835.47;5054573;28;20029;-78
2023/03/23 05:49:51;;;;;;;17.45;11.68;;;;;;;11.56;78.91;98825.88;5054820;28;20025;-78
2023/03/23 05:52:17;;;;;;;17.95;11.75;;;;;;;11.41;79.43;98804.22;5054720;28;20025;-78
2023/03/23 05:54:42;;;;;;;14.00;10.88;;;;;;;11.40;79.28;98792.94;5054423;28;20025;-78
2023/03/23 05:57:08;;;;;;;15.88;10.50;;;;;;;11.38;79.53;98809.63;5054931;28;20091;-78
2023/03/23 05:59:34;;;;;;;14.88;10.77;;;;;;;11.42;79.68;98798.09;5054767;28;20033;-78
2023/03/23 06:01:59;;;;;;;14.18;10.70;;;;;;;11.63;79.57;98820.19;5054629;28;20021;-78
2023/03/23 06:04:26;;;;;;;15.60;9.70;;;;;;;11.52;79.64;98799.16;5054258;28;20534;-78
2023/03/23 06:06:52;;;;;;;12.68;9.48;;;;;;;11.63;79.69;98806.28;5054277;28;20443;-78
2023/03/23 06:09:18;;;;;;;14.82;9.07;;;;;;;11.74;79.57;98822.06;5054607;28;20112;-78
2023/03/23 06:11:44;;;;;;;12.88;10.30;;;;;;;11.80;79.23;98815.63;5054419;28;20029;-78
2023/03/23 06:14:09;;;;;;;15.35;10.02;;;;;;;11.85;78.89;98816.22;5055104;28;20048;-78
2023/03/23 06:16:34;;;;;;;15.73;10.23;;;;;;;11.82;78.59;98796.34;5054151;28;20476;-78
2023/03/23 06:19:00;;;;;;;13.07;9.52;;;;;;;12.04;78.71;98808.00;5054629;28;20045;-78
2023/03/23 06:21:26;;;;;;;15.75;9.45;;;;;;;12.05;78.71;98810.53;5053858;28;20021;-78
2023/03/23 06:23:51;;;;;;;13.98;11.40;;;;;;;11.95;78.20;98781.56;5054234;28;20469;-78
2023/03/23 06:26:19;;;;;;;16.13;11.75;;;;;;;12.20;78.00;98806.06;5054169;28;20053;-79
2023/03/23 06:28:45;;;;;;;15.02;10.43;;;;;;;12.34;77.42;98800.72;5053938;28;20384;-78
2023/03/23 06:31:11;;;;;;;12.25;8.63;;;;;;;12.63;76.44;98805.75;5054085;28;20032;-78
2023/03/23 06:33:37;;;;;;;14.88;11.18;;;;;;;12.67;76.91;98797.59;5053751;28;20025;-78
2023/03/23 06:36:04;;;;;;;15.82;11.60;;;;;;;12.75;75.95;98791.84;5053835;28;20036;-78
2023/03/23 06:38:30;;;;;;;11.30;8.77;;;;;;;12.94;75.85;98801.88;5053747;28;20021;-78
2023/03/23 06:40:56;;;;;;;10.88;8.13;;;;;;;13.14;74.82;98772.53;5053399;28;20040;-78
2023/03/23 06:43:22;;;;;;;10.50;8.20;;;;;;;13.36;73.62;98779.72;5053869;28;20078;-78
2023/03/23 06:45:48;;;;;;;12.50;8.32;;;;;;;13.54;73.55;98787.19;5053728;28;20100;-78
2023/03/23 06:48:13;;;;;;;10.73;8.48;;;;;;;13.53;72.54;98765.44;5053574;28;20032;-78
2023/03/23 06:50:43;;;;;;;14.52;8.10;;;;;;;14.35;71.11;98789.03;5053319;28;20036;-78
2023/03/23 06:53:08;;;;;;;16.20;8.07;;;;;;;15.19;69.14;98782.50;5053710;28;20024;-78
2023/03/23 06:55:33;;;;;;;10.50;7.00;;;;;;;15.85;67.14;98788.56;5051976;28;20033;-78
2023/03/23 06:58:01;;;;;;;9.48;7.68;;;;;;;16.02;66.07;98784.56;5053597;28;20025;-78
2023/03/23 07:00:26;;;;;;;8.85;6.88;;;;;;;15.86;66.19;98777.09;5053135;28;20102;-78
2023/03/23 07:02:52;;;;;;;9.93;7.10;;;;;;;15.91;65.68;98792.47;5053424;28;20092;-78
2023/03/23 07:05:17;;;;;;;8.27;6.97;;;;;;;15.45;65.84;98783.06;5053277;28;20532;-78
2023/03/23 07:07:42;;;;;;;7.57;6.40;;;;;;;15.19;66.94;98779.88;5053128;28;20029;-78
2023/03/23 07:10:09;;;;;;;9.40;6.88;;;;;;;15.06;67.54;98780.03;5053245;28;20469;-78
2023/03/23 07:12:35;;;;;;;11.27;6.97;;;;;;;14.71;68.17;98786.25;5052935;28;20029;-78
2023/03/23 07:15:02;;;;;;;12.35;7.72;;;;;;;14.63;68.78;98798.28;5053214;28;20109;-78
2023/03/23 07:17:28;;;;;;;8.82;7.53;;;;;;;14.37;69.22;98785.34;5052797;28;20049;-79
2023/03/23 07:19:54;;;;;;;9.15;6.97;;;;;;;14.35;70.03;98781.16;5053092;28;20511;-78
2023/03/23 07:22:19;;;;;;;9.73;7.22;;;;;;;14.29;70.19;98776.41;5053191;28;20029;-79
2023/03/23 07:24:44;;;;;;;9.73;7.57;;;;;;;14.43;70.22;98812.84;5052790;28;20556;-79
2023/03/23 07:27:10;;;;;;;11.60;6.93;;;;;;;14.33;70.53;98768.19;5053117;28;20032;-78
2023/03/23 07:29:38;;;;;;;11.02;8.40;;;;;;;14.44;70.89;98798.78;5052809;28;20029;-78
2023/03/23 07:32:04;;;;;;;13.57;8.13;;;;;;;14.63;70.91;98775.53;5052793;28;20029;-78
2023/03/23 07:34:30;;;;;;;19.40;8.13;;;;;;;15.48;69.36;98786.25;5052486;28;20025;-78
2023/03/23 07:36:55;;;;;;;20.77;8.77;;;;;;;15.92;67.06;98767.88;5052876;28;20538;-78
2023/03/23 07:39:23;;;;;;;9.82;7.55;;;;;;;16.04;67.02;98787.03;5052801;28;20029;-78
2023/03/23 07:41:48;;;;;;;13.23;8.82;;;;;;;15.71;67.75;98763.41;5052530;28;20056;-78
2023/03/23 07:44:13;;;;;;;8.43;7.45;;;;;;;15.53;68.38;98785.88;5052692;28;20067;-78
2023/03/23 07:46:39;;;;;;;13.95;9.35;;;;;;;15.10;69.44;98763.09;5052282;28;20088;-78
2023/03/23 07:49:05;;;;;;;12.23;9.60;;;;;;;15.20;69.67;98760.56;5052394;28;20107;-78
2023/03/23 07:51:31;;;;;;;10.00;7.22;;;;;;;15.35;69.28;98758.53;5052317;28;20032;-78
2023/03/23 07:53:56;;;;;;;7.90;7.05;;;;;;;15.70;68.32;98769.63;5051842;28;20059;-78
2023/03/23 07:56:22;;;;;;;10.98;6.93;;;;;;;15.85;67.19;98771.97;5052421;28;20057;-78
2023/03/23 07:58:48;;;;;;;9.75;6.45;;;;;;;16.00;67.13;98762.81;5052394;28;20048;-78
2023/03/23 08:01:14;;;;;;;10.15;6.88;;;;;;;16.06;66.63;98764.94;5052327;28;20063;-78
2023/03/23 08:03:39;;;;;;;14.55;7.22;;;;;;;15.95;66.87;98770.25;5051900;28;20456;-78
2023/03/23 08:06:05;;;;;;;8.82;6.68;;;;;;;15.99;67.07;98778.72;5052383;28;20052;-78
2023/03/23 08:08:31;;;;;;;9.63;7.28;;;;;;;15.68;67.29;98755.00;5051977;28;20090;-78
2023/03/23 08:10:57;;;;;;;9.98;7.32;;;;;;;15.98;66.76;98764.75;5052199;28;20074;-78
2023/03/23 08:13:22;;;;;;;8.30;6.00;;;;;;;16.31;66.22;98770.78;5052136;28;20025;-78
2023/03/23 08:15:48;;;;;;;8.25;6.60;;;;;;;16.68;64.89;98764.03;5051815;28;20455;-78
2023/03/23 08:18:14;;;;;;;8.43;6.82;;;;;;;16.79;64.01;98733.41;5051985;28;20385;-78
2023/03/23 08:20:40;;;;;;;8.82;6.32;;;;;;;16.96;63.92;98736.22;5051959;28;20028;-78
2023/03/23 08:23:06;;;;;;;9.95;7.05;;;;;;;17.18;63.73;98747.50;5052467;28;20029;-78
2023/03/23 08:25:32;;;;;;;8.32;7.00;;;;;;;17.45;63.56;98755.56;5051755;28;20058;-77
2023/03/23 08:27:58;;;;;;;8.80;6.68;;;;;;;17.78;63.13;98752.69;5051824;28;20412;-78
2023/03/23 08:30:25;;;;;;;8.85;6.80;;;;;;;18.08;62.18;98754.38;5051890;28;20025;-77
2023/03/23 08:32:52;;;;;;;10.10;7.18;;;;;;;18.27;62.40;98759.59;5051571;28;20112;-78
2023/03/23 08:35:18;;;;;;;7.32;6.28;;;;;;;18.39;60.96;98765.53;5051764;28;20535;-78
2023/03/23 08:37:44;;;;;;;10.13;7.22;;;;;;;18.33;60.61;98747.63;5051751;28;20516;-78
2023/03/23 08:40:13;;;;;;;6.95;6.07;;;;;;;18.52;59.77;98768.69;5052009;28;20117;-78
2023/03/23 08:42:43;;;;;;;8.05;6.32;;;;;;;18.52;59.64;98767.84;5051684;28;20489;-78
2023/03/23 08:45:11;;;;;;;9.65;7.47;;;;;;;18.47;59.31;98775.38;5051719;28;20473;-78
2023/03/23 08:47:37;;;;;;;8.63;7.47;;;;;;;18.38;60.05;98764.69;5051638;28;20381;-78
2023/03/23 08:50:06;;;;;;;9.02;6.53;;;;;;;18.58;59.23;98764.63;5051889;28;20358;-78
2023/03/23 08:52:31;;;;;;;7.40;6.53;;;;;;;18.67;59.04;98759.34;5051413;28;20116;-78
2023/03/23 08:54:57;;;;;;;8.65;7.03;;;;;;;18.74;58.36;98766.69;5051710;28;20108;-78
2023/03/23 08:57:26;;;;;;;8.27;5.93;;;;;;;18.59;58.49;98764.50;5051616;28;20032;-78
2023/03/23 08:59:54;;;;;;;7.13;6.10;;;;;;;18.52;58.88;98760.78;5051515;28;20048;-78
2023/03/23 09:02:20;;;;;;;7.35;6.28;;;;;;;18.43;59.12;98759.81;5051539;28;20492;-78
2023/03/23 09:04:45;;;;;;;8.13;6.65;;;;;;;18.35;59.39;98741.25;5054025;28;20033;-78
2023/03/23 09:07:14;;;;;;;6.90;5.65;;;;;;;18.36;59.46;98747.34;5055434;28;20028;-78
2023/03/23 09:09:39;;;;;;;7.75;5.78;;;;;;;18.48;59.29;98761.19;5055303;28;20025;-78
2023/03/23 09:12:06;;;;;;;8.32;5.55;;;;;;;18.48;59.28;98767.31;5055493;28;20021;-78
2023/03/23 09:14:32;;;;;;;6.97;5.20;;;;;;;18.35;59.25;98772.06;5055200;28;20029;-78
2023/03/23 09:16:58;;;;;;;8.98;5.68;;;;;;;18.03;59.66;98746.03;5055400;28;20039;-78
2023/03/23 09:19:23;;;;;;;8.68;5.63;;;;;;;18.27;60.82;98775.41;5055426;28;20056;-78
2023/03/23 09:21:48;;;;;;;6.65;5.40;;;;;;;18.37;60.88;98759.56;5055144;28;20110;-78
2023/03/23 09:24:15;;;;;;;8.02;5.22;;;;;;;18.52;60.19;98768.69;5055229;28;20031;-78
2023/03/23 09:26:40;;;;;;;6.20;4.70;;;;;;;18.55;59.80;98772.84;5054895;28;20108;-78
2023/03/23 09:29:06;;;;;;;6.07;4.72;;;;;;;18.40;59.64;98756.63;5055615;28;20433;-78
2023/03/23 09:31:31;;;;;;;7.90;4.95;;;;;;;18.48;59.72;98780.50;5055358;28;20602;-78
2023/03/23 09:33:58;;;;;;;4.22;3.83;;;;;;;18.27;59.98;98750.84;5055032;28;20091;-78
2023/03/23 09:36:25;;;;;;;4.60;3.92;;;;;;;18.59;59.85;98772.41;5055174;28;20028;-78
2023/03/23 09:38:52;;;;;;;4.47;3.58;;;;;;;18.64;60.00;98756.16;5054796;28;20029;-78
2023/03/23 09:41:36;;;;;;;4.15;3.42;;;;;;;18.77;59.02;98790.16;5054927;28;20056;-78
2023/03/23 09:44:22;;;;;;;6.93;2.90;;;;;;;18.69;59.15;98793.47;5055069;28;20017;-78
2023/03/23 09:47:01;;;;;;;5.53;3.78;;;;;;;18.49;59.01;98773.41;5054675;28;20099;-78
2023/03/23 09:49:32;;;;;;;6.00;4.30;;;;;;;18.46;59.39;98800.91;5054830;28;20032;-78
2023/03/23 09:52:10;;;;;;;6.10;4.38;;;;;;;18.10;58.80;98765.59;5054784;28;20033;-78
2023/03/23 09:54:38;;;;;;;3.55;2.10;;;;;;;18.02;57.82;98786.53;5055209;28;20025;-78
2023/03/23 09:57:11;;;;;;;2.95;2.05;;;;;;;18.12;57.91;98796.09;5054839;28;20029;-78
2023/03/23 09:59:44;;;;;;;2.40;2.20;;;;;;;18.25;57.86;98797.63;5054469;28;20039;-78
2023/03/23 10:02:14;;;;;;;4.70;2.28;;;;;;;18.17;57.68;98767.50;5054483;28;20029;-78
2023/03/23 10:04:52;;;;;;;2.53;2.17;;;;;;;18.25;57.51;98777.34;5054481;28;20127;-78
2023/03/23 10:07:20;;;;;;;3.45;2.30;;;;;;;18.33;57.42;98780.13;5054477;28;20021;-78
2023/03/23 10:09:48;;;;;;;2.10;1.90;;;;;;;18.38;57.36;98792.88;5054139;28;20029;-78
2023/03/23 10:12:32;;;;;;;5.63;2.30;;;;;;;18.34;57.63;98788.84;5054360;28;20027;-78
2023/03/23 10:15:14;;;;;;;3.33;1.95;;;;;;;18.26;57.50;98791.38;5053424;28;20039;-78
2023/03/23 10:17:54;;;;;;;3.45;2.08;;;;;;;18.03;57.79;98778.47;5054096;28;20041;-78
2023/03/23 10:20:23;;;;;;;3.75;2.20;;;;;;;18.03;58.04;98802.19;5054190;28;20388;-78
2023/03/23 10:23:01;;;;;;;2.90;2.50;;;;;;;17.87;58.11;98788.75;5053919;28;20483;-78
2023/03/23 10:25:31;;;;;;;2.22;2.03;;;;;;;17.71;58.64;98799.81;5053962;28;20017;-78
2023/03/23 10:28:05;;;;;;;5.03;2.22;;;;;;;17.48;58.21;98783.41;5054025;28;20037;-78
2023/03/23 10:30:36;;;;;;;3.20;1.70;;;;;;;17.56;58.92;98799.34;5054134;28;20025;-78
2023/03/23 10:33:24;;;;;;;2.42;2.22;;;;;;;17.63;58.78;98812.81;5054061;28;20091;-78
2023/03/23 10:36:18;;;;;;;3.20;1.85;;;;;;;17.63;58.67;98812.81;5053958;28;20036;-78
2023/03/23 10:38:48;;;;;;;2.35;1.80;;;;;;;17.57;58.76;98811.59;5053763;28;20029;-78
2023/03/23 10:41:16;;;;;;;1.80;1.70;;;;;;;17.50;58.31;98812.25;5053845;28;20063;-78
2023/03/23 10:43:43;;;;;;;2.85;1.63;;;;;;;17.49;58.12;98821.97;5053469;28;20060;-78
2023/03/23 10:46:33;;;;;;;3.45;2.20;;;;;;;17.50;57.98;98825.41;5053587;28;20032;-78
2023/03/23 10:49:04;;;;;;;3.92;2.00;;;;;;;17.46;57.99;98794.09;5053528;28;20033;-78
2023/03/23 10:51:35;;;;;;;4.55;2.20;;;;;;;17.60;57.97;98806.03;5053634;28;20075;-78
2023/03/23 10:54:04;;;;;;;4.35;1.77;;;;;;;17.66;57.95;98802.03;5053369;28;20024;-78
2023/03/23 10:56:39;;;;;;;2.25;2.00;;;;;;;17.75;57.59;98801.22;5053376;28;20163;-78
2023/03/23 10:59:33;;;;;;;1.83;1.60;;;;;;;17.91;58.11;98804.16;5053580;28;20047;-78
2023/03/23 11:02:03;;;;;;;3.63;1.98;;;;;;;17.97;58.37;98776.41;5030901;28;20052;-78
2023/03/23 11:04:31;;;;;;;3.58;2.00;;;;;;;18.31;57.46;98816.31;5031106;28;20036;-78
2023/03/23 11:07:00;;;;;;;2.17;1.83;;;;;;;18.48;57.47;98814.75;5030662;28;20065;-78
2023/03/23 11:09:37;;;;;;;4.78;2.90;;;;;;;18.45;57.15;98810.59;5031087;28;20029;-78
2023/03/23 11:12:03;;;;;;;2.75;2.30;;;;;;;18.60;57.50;98811.00;5030674;28;20489;-78
2023/03/23 11:14:38;;;;;;;4.53;2.30;;;;;;;18.65;56.72;98807.94;5031138;28;20037;-78
2023/03/23 11:17:06;;;;;;;2.10;1.90;;;;;;;18.66;56.41;98806.94;5030621;28;20247;-78
2023/03/23 11:19:36;;;;;;;2.13;1.92;;;;;;;18.78;56.61;98816.38;5030733;28;20033;-78
2023/03/23 11:22:04;;;;;;;2.70;2.10;;;;;;;18.82;56.49;98814.28;5030319;28;20042;-78
2023/03/23 11:24:33;;;;;;;2.92;2.20;;;;;;;18.81;56.22;98826.66;5030554;28;20060;-78
2023/03/23 11:26:58;;;;;;;2.40;2.05;;;;;;;18.66;56.33;98820.13;5030107;28;20041;-78
2023/03/23 11:29:26;;;;;;;2.53;1.95;;;;;;;18.63;56.29;98828.34;5030682;28;20511;-78
2023/03/23 11:32:00;;;;;;;4.55;2.00;;;;;;;18.57;56.07;98842.91;5030231;28;20047;-78